Share

Kalaheo, HI

Lihue (PHLI) Elev 102 ft | 21.98 °N, 159.34 °W | Change Station

Current weather conditions updated 56 minutes ago

Partly Cloudy
Partly Cloudy
72 °F
Feels Like 72 °F
N
20
Wind Variable Wind from NE
Sunrise 6:14 AM
Sunset 6:59 PM
Moon Waning Gibbous

Today is forecast to be Cooler than yesterday. Showers ending by midday.

Pressure 30.15 in
Visibility 10.0 miles
Clouds Few 5000 ft
Dew Point 65 °F
Humidity 78%
Rainfall 0.00 in
Snow Depth Not available.
UV 0 out of 16
Pollen Not available.
Air Quality Not available.
Flu Activity Local Activity
METAR PHLI 201153Z 05017KT 10SM FEW050 22/18 A3016 RMK AO2 SLP209 60000 T02220183 10228 20222 58009 $

More Conditions Fewer Conditions

Pressure 30.15 in
Visibility 10.0 miles
Clouds Few 5000 ft
Dew Point 65 °F
Humidity 78%
Rainfall 0.00 in
Snow Depth Not available.
UV 0 out of 16
Pollen Not available.
Air Quality Not available.
Flu Activity Local Activity
METAR PHLI 201153Z 05017KT 10SM FEW050 22/18 A3016 RMK AO2 SLP209 60000 T02220183 10228 20222 58009 $

More Conditions Fewer Conditions

10-Day Weather Forecast

Almanac

Astronomy

Apr. 20, 2014 Rise Set
Actual Time 6:14 AM HST 6:59 PM HST
Civil Twilight 5:51 AM HST 7:22 PM HST
Nautical Twilight 5:24 AM HST 7:49 PM HST
Astronomical Twilight 4:56 AM HST 8:17 PM HST
Moon No Moon Rise 11:00 AM HST
Length of Visible Light 13h 31m
Length of Day
12h 45m
Tomorrow will be 1m 10s longer.
Waning Gibbous, 70% of the Moon is Illuminated
Today
Waning Gibbous
Apr 22
Last Quarter
Apr 29
New
May 6
First Quarter
May 14
Full

Today's Extremes

State Highs State Lows

Community

  • EARLY FOGGY MORNING
    EARLY FOGGY MORNING
  • Easter Greetings
    Easter Greetings
  • Sunny day at the coast-Cape Arago Lighthouse
    Sunny day at the coast-Cape Arago Lighthouse
  • Cherry Blossoms
    Cherry Blossoms
  • White-Crowned Sparrow
    White-Crowned Sparrow

WunderPhotos

Upload Photos

1,703,189 photos uploaded!

Nearby

Snow Depth

Station Depth Elevation
No new snow has been reported.

Coastal Water Temperatures

Place Temperature
No Stations Reporting

Earthquake Activity

City Distance Mag. Time & Date
No recent earthquake activity has been reported nearby.
Minimum magnitude displayed is 2.5.

Nearby Weather Stations

Station Location Temp. Dew Point Humidity Wind Precip. Elev Updated Type
Pooku, Princeville, HI 67.8 °F 65 °F 91% SSE  at  0.0 mph 0.00 in / hr 480 ft 2:49 AM HST Rapid Fire
Na Pali Properties on Kauai, Hanalei, HI 70.2 °F 67 °F 89% SE  at  2.2 mph 0.00 in / hr 36 ft 2:49 AM HST Rapid Fire
Kalihiwai Ridge, Kilauea, HI 69.5 °F 66 °F 90% SSE  at  1.0 mph 0.00 in / hr 300 ft 2:49 AM HST Rapid Fire
North Shore of Kauai, Princeville, HI 70.0 °F 64 °F 82% ESE  at  10.1 mph 0.00 in / hr 200 ft 2:49 AM HST Rapid Fire

Show More Stations Show Fewer Stations

What do you think?

We're not finished. Please let us know what you like, what you don't like, and what you are still missing.